sensor_id;sensor_type;location;lat;lon;timestamp;temperature;humidity
74420;DHT22;62855;50.718;-2.460;2023-03-11T00:02:06;35.42;72.00
74420;DHT22;62855;50.718;-2.460;2023-03-11T00:05:07;35.42;72.00
74420;DHT22;62855;50.718;-2.460;2023-03-11T00:08:07;35.60;72.00
74420;DHT22;62855;50.718;-2.460;2023-03-11T00:11:06;35.60;72.00
74420;DHT22;62855;50.718;-2.460;2023-03-11T00:14:06;35.60;72.00
74420;DHT22;62855;50.718;-2.460;2023-03-11T00:17:06;35.60;72.00
74420;DHT22;62855;50.718;-2.460;2023-03-11T00:20:08;35.60;71.00
74420;DHT22;62855;50.718;-2.460;2023-03-11T00:23:07;35.60;71.00
74420;DHT22;62855;50.718;-2.460;2023-03-11T00:26:06;35.60;71.00
74420;DHT22;62855;50.718;-2.460;2023-03-11T00:29:06;35.60;71.00
74420;DHT22;62855;50.718;-2.460;2023-03-11T00:32:06;35.60;71.00
74420;DHT22;62855;50.718;-2.460;2023-03-11T00:35:07;35.60;71.00
74420;DHT22;62855;50.718;-2.460;2023-03-11T00:38:07;35.60;71.00
74420;DHT22;62855;50.718;-2.460;2023-03-11T00:41:06;35.60;71.00
74420;DHT22;62855;50.718;-2.460;2023-03-11T00:44:06;35.60;71.00
74420;DHT22;62855;50.718;-2.460;2023-03-11T00:47:06;35.60;71.00
74420;DHT22;62855;50.718;-2.460;2023-03-11T00:50:07;35.60;70.00
74420;DHT22;62855;50.718;-2.460;2023-03-11T00:53:06;35.60;71.00
74420;DHT22;62855;50.718;-2.460;2023-03-11T00:56:07;35.60;71.00
74420;DHT22;62855;50.718;-2.460;2023-03-11T00:59:06;35.60;71.00
74420;DHT22;62855;50.718;-2.460;2023-03-11T01:02:06;35.60;71.00
74420;DHT22;62855;50.718;-2.460;2023-03-11T01:05:07;35.60;71.00
74420;DHT22;62855;50.718;-2.460;2023-03-11T01:08:06;35.60;71.00
74420;DHT22;62855;50.718;-2.460;2023-03-11T01:11:07;35.60;71.00
74420;DHT22;62855;50.718;-2.460;2023-03-11T01:14:06;35.60;71.00
74420;DHT22;62855;50.718;-2.460;2023-03-11T01:17:06;35.60;71.00
74420;DHT22;62855;50.718;-2.460;2023-03-11T01:20:06;35.60;71.00
74420;DHT22;62855;50.718;-2.460;2023-03-11T01:23:07;35.60;71.00
74420;DHT22;62855;50.718;-2.460;2023-03-11T01:26:06;35.60;71.00
74420;DHT22;62855;50.718;-2.460;2023-03-11T01:29:06;35.60;71.00
74420;DHT22;62855;50.718;-2.460;2023-03-11T01:32:07;35.60;71.00
74420;DHT22;62855;50.718;-2.460;2023-03-11T01:35:06;35.60;71.00
74420;DHT22;62855;50.718;-2.460;2023-03-11T01:38:05;35.60;71.00
74420;DHT22;62855;50.718;-2.460;2023-03-11T01:41:06;35.60;71.00
74420;DHT22;62855;50.718;-2.460;2023-03-11T01:44:09;35.60;71.00
74420;DHT22;62855;50.718;-2.460;2023-03-11T01:47:31;35.60;71.00
74420;DHT22;62855;50.718;-2.460;2023-03-11T01:50:10;35.60;71.00
74420;DHT22;62855;50.718;-2.460;2023-03-11T01:53:06;35.60;71.00
74420;DHT22;62855;50.718;-2.460;2023-03-11T01:56:06;35.60;72.00
74420;DHT22;62855;50.718;-2.460;2023-03-11T01:59:07;35.60;72.00
74420;DHT22;62855;50.718;-2.460;2023-03-11T02:02:11;35.60;72.00
74420;DHT22;62855;50.718;-2.460;2023-03-11T02:05:07;35.60;72.00
74420;DHT22;62855;50.718;-2.460;2023-03-11T02:08:06;35.60;72.00
74420;DHT22;62855;50.718;-2.460;2023-03-11T02:11:09;35.60;72.00
74420;DHT22;62855;50.718;-2.460;2023-03-11T02:14:07;35.78;72.00
74420;DHT22;62855;50.718;-2.460;2023-03-11T02:17:05;35.78;72.00
74420;DHT22;62855;50.718;-2.460;2023-03-11T02:20:16;35.78;72.00
74420;DHT22;62855;50.718;-2.460;2023-03-11T02:23:06;35.60;72.00
74420;DHT22;62855;50.718;-2.460;2023-03-11T02:26:11;35.60;72.00
74420;DHT22;62855;50.718;-2.460;2023-03-11T02:29:07;35.60;72.00
74420;DHT22;62855;50.718;-2.460;2023-03-11T02:32:07;35.60;73.00
74420;DHT22;62855;50.718;-2.460;2023-03-11T02:35:06;35.60;73.00
74420;DHT22;62855;50.718;-2.460;2023-03-11T02:38:06;35.60;73.00
74420;DHT22;62855;50.718;-2.460;2023-03-11T02:41:06;35.60;73.00
74420;DHT22;62855;50.718;-2.460;2023-03-11T02:44:07;35.42;74.00
74420;DHT22;62855;50.718;-2.460;2023-03-11T02:47:06;35.42;74.00
74420;DHT22;62855;50.718;-2.460;2023-03-11T02:50:10;35.42;74.00
74420;DHT22;62855;50.718;-2.460;2023-03-11T02:53:06;35.24;75.00
74420;DHT22;62855;50.718;-2.460;2023-03-11T02:56:06;35.24;75.00
74420;DHT22;62855;50.718;-2.460;2023-03-11T02:59:06;35.24;75.00
74420;DHT22;62855;50.718;-2.460;2023-03-11T03:02:06;35.24;75.00
74420;DHT22;62855;50.718;-2.460;2023-03-11T03:05:06;35.24;75.00
74420;DHT22;62855;50.718;-2.460;2023-03-11T03:08:06;35.24;75.00
74420;DHT22;62855;50.718;-2.460;2023-03-11T03:11:06;35.24;75.00
74420;DHT22;62855;50.718;-2.460;2023-03-11T03:14:06;35.24;75.00
74420;DHT22;62855;50.718;-2.460;2023-03-11T03:17:06;35.42;75.00
74420;DHT22;62855;50.718;-2.460;2023-03-11T03:20:08;35.42;75.00
74420;DHT22;62855;50.718;-2.460;2023-03-11T03:23:06;35.42;75.00
74420;DHT22;62855;50.718;-2.460;2023-03-11T03:26:06;35.42;75.00
74420;DHT22;62855;50.718;-2.460;2023-03-11T03:29:06;35.42;75.00
74420;DHT22;62855;50.718;-2.460;2023-03-11T03:32:06;35.42;75.00
74420;DHT22;62855;50.718;-2.460;2023-03-11T03:35:07;35.42;75.00
74420;DHT22;62855;50.718;-2.460;2023-03-11T03:38:06;35.42;75.00
74420;DHT22;62855;50.718;-2.460;2023-03-11T03:41:16;35.42;75.00
74420;DHT22;62855;50.718;-2.460;2023-03-11T03:44:07;35.60;76.00
74420;DHT22;62855;50.718;-2.460;2023-03-11T03:47:06;35.60;76.00
74420;DHT22;62855;50.718;-2.460;2023-03-11T03:50:08;35.60;76.00
74420;DHT22;62855;50.718;-2.460;2023-03-11T03:53:06;35.60;76.00
74420;DHT22;62855;50.718;-2.460;2023-03-11T03:56:08;35.78;76.00
74420;DHT22;62855;50.718;-2.460;2023-03-11T03:59:06;35.78;76.00
74420;DHT22;62855;50.718;-2.460;2023-03-11T04:02:36;35.78;76.00
74420;DHT22;62855;50.718;-2.460;2023-03-11T04:05:07;35.78;76.00
74420;DHT22;62855;50.718;-2.460;2023-03-11T04:08:06;35.96;76.00
74420;DHT22;62855;50.718;-2.460;2023-03-11T04:11:06;35.96;76.00
74420;DHT22;62855;50.718;-2.460;2023-03-11T04:14:06;35.96;76.00
74420;DHT22;62855;50.718;-2.460;2023-03-11T04:17:08;35.96;76.00
74420;DHT22;62855;50.718;-2.460;2023-03-11T04:20:07;35.96;75.00
74420;DHT22;62855;50.718;-2.460;2023-03-11T04:23:06;35.96;75.00
74420;DHT22;62855;50.718;-2.460;2023-03-11T04:26:06;35.96;75.00
74420;DHT22;62855;50.718;-2.460;2023-03-11T04:29:12;35.96;75.00
74420;DHT22;62855;50.718;-2.460;2023-03-11T04:32:06;35.96;75.00
74420;DHT22;62855;50.718;-2.460;2023-03-11T04:36:07;35.96;75.00
74420;DHT22;62855;50.718;-2.460;2023-03-11T04:39:06;35.96;75.00
74420;DHT22;62855;50.718;-2.460;2023-03-11T04:42:16;35.96;75.00
74420;DHT22;62855;50.718;-2.460;2023-03-11T04:45:07;35.96;75.00
74420;DHT22;62855;50.718;-2.460;2023-03-11T04:48:07;35.96;75.00
74420;DHT22;62855;50.718;-2.460;2023-03-11T04:51:06;35.96;75.00
74420;DHT22;62855;50.718;-2.460;2023-03-11T04:54:05;35.96;75.00
74420;DHT22;62855;50.718;-2.460;2023-03-11T04:57:07;35.96;76.00
74420;DHT22;62855;50.718;-2.460;2023-03-11T05:00:08;35.96;76.00
74420;DHT22;62855;50.718;-2.460;2023-03-11T05:03:06;35.78;76.00
74420;DHT22;62855;50.718;-2.460;2023-03-11T05:06:06;35.78;76.00
74420;DHT22;62855;50.718;-2.460;2023-03-11T05:09:06;35.78;76.00
74420;DHT22;62855;50.718;-2.460;2023-03-11T05:12:08;35.78;77.00
74420;DHT22;62855;50.718;-2.460;2023-03-11T05:15:07;35.78;77.00
74420;DHT22;62855;50.718;-2.460;2023-03-11T05:18:06;35.78;77.00
74420;DHT22;62855;50.718;-2.460;2023-03-11T05:21:06;35.78;77.00
74420;DHT22;62855;50.718;-2.460;2023-03-11T05:24:06;35.78;78.00
74420;DHT22;62855;50.718;-2.460;2023-03-11T05:27:06;35.78;78.00
74420;DHT22;62855;50.718;-2.460;2023-03-11T05:30:07;35.78;78.00
74420;DHT22;62855;50.718;-2.460;2023-03-11T05:33:06;35.78;78.00
74420;DHT22;62855;50.718;-2.460;2023-03-11T05:36:08;35.78;79.00
74420;DHT22;62855;50.718;-2.460;2023-03-11T05:39:06;35.78;79.00
74420;DHT22;62855;50.718;-2.460;2023-03-11T05:42:07;35.96;79.00
74420;DHT22;62855;50.718;-2.460;2023-03-11T05:45:07;35.96;79.00
74420;DHT22;62855;50.718;-2.460;2023-03-11T05:48:06;35.96;79.00
74420;DHT22;62855;50.718;-2.460;2023-03-11T05:51:07;35.96;80.00
74420;DHT22;62855;50.718;-2.460;2023-03-11T05:54:06;35.96;80.00
74420;DHT22;62855;50.718;-2.460;2023-03-11T05:57:06;35.96;80.00
74420;DHT22;62855;50.718;-2.460;2023-03-11T06:00:08;35.96;80.00
74420;DHT22;62855;50.718;-2.460;2023-03-11T06:03:06;35.96;80.00
74420;DHT22;62855;50.718;-2.460;2023-03-11T06:06:08;36.14;80.00
74420;DHT22;62855;50.718;-2.460;2023-03-11T06:09:06;36.14;80.00
74420;DHT22;62855;50.718;-2.460;2023-03-11T06:12:07;36.14;80.00
74420;DHT22;62855;50.718;-2.460;2023-03-11T06:15:07;36.14;80.00
74420;DHT22;62855;50.718;-2.460;2023-03-11T06:18:06;36.14;80.00
74420;DHT22;62855;50.718;-2.460;2023-03-11T06:21:06;36.14;80.00
74420;DHT22;62855;50.718;-2.460;2023-03-11T06:24:06;35.96;80.00
74420;DHT22;62855;50.718;-2.460;2023-03-11T06:27:06;35.96;80.00
74420;DHT22;62855;50.718;-2.460;2023-03-11T06:30:07;35.96;80.00
74420;DHT22;62855;50.718;-2.460;2023-03-11T06:33:06;35.96;80.00
74420;DHT22;62855;50.718;-2.460;2023-03-11T06:36:07;35.96;80.00
74420;DHT22;62855;50.718;-2.460;2023-03-11T06:39:05;35.96;80.00
74420;DHT22;62855;50.718;-2.460;2023-03-11T06:42:09;36.14;80.00
74420;DHT22;62855;50.718;-2.460;2023-03-11T06:45:07;36.14;80.00
74420;DHT22;62855;50.718;-2.460;2023-03-11T06:48:06;36.14;80.00
74420;DHT22;62855;50.718;-2.460;2023-03-11T06:51:06;36.14;80.00
74420;DHT22;62855;50.718;-2.460;2023-03-11T06:54:06;36.14;80.00
74420;DHT22;62855;50.718;-2.460;2023-03-11T06:57:07;35.96;80.00
74420;DHT22;62855;50.718;-2.460;2023-03-11T07:00:07;35.96;80.00
74420;DHT22;62855;50.718;-2.460;2023-03-11T07:03:06;35.96;81.00
74420;DHT22;62855;50.718;-2.460;2023-03-11T07:06:10;35.96;81.00
74420;DHT22;62855;50.718;-2.460;2023-03-11T07:09:06;35.78;81.00
74420;DHT22;62855;50.718;-2.460;2023-03-11T07:12:06;35.78;81.00
74420;DHT22;62855;50.718;-2.460;2023-03-11T07:15:07;35.78;81.00
74420;DHT22;62855;50.718;-2.460;2023-03-11T07:18:06;35.78;81.00
74420;DHT22;62855;50.718;-2.460;2023-03-11T07:21:07;35.78;81.00
74420;DHT22;62855;50.718;-2.460;2023-03-11T07:24:06;35.78;81.00
74420;DHT22;62855;50.718;-2.460;2023-03-11T07:27:06;35.78;81.00
74420;DHT22;62855;50.718;-2.460;2023-03-11T07:30:08;35.78;81.00
74420;DHT22;62855;50.718;-2.460;2023-03-11T07:33:06;35.78;81.00
74420;DHT22;62855;50.718;-2.460;2023-03-11T07:36:07;35.78;81.00
74420;DHT22;62855;50.718;-2.460;2023-03-11T07:39:06;35.78;81.00
74420;DHT22;62855;50.718;-2.460;2023-03-11T07:42:06;35.78;81.00
74420;DHT22;62855;50.718;-2.460;2023-03-11T07:45:07;35.78;81.00
74420;DHT22;62855;50.718;-2.460;2023-03-11T07:48:06;35.78;82.00
74420;DHT22;62855;50.718;-2.460;2023-03-11T07:51:08;35.78;82.00
74420;DHT22;62855;50.718;-2.460;2023-03-11T07:54:06;35.96;82.00
74420;DHT22;62855;50.718;-2.460;2023-03-11T07:57:06;35.96;82.00
74420;DHT22;62855;50.718;-2.460;2023-03-11T08:00:07;35.96;82.00
74420;DHT22;62855;50.718;-2.460;2023-03-11T08:03:06;36.14;82.00
74420;DHT22;62855;50.718;-2.460;2023-03-11T08:06:11;36.14;82.00
74420;DHT22;62855;50.718;-2.460;2023-03-11T08:09:07;36.32;82.00
74420;DHT22;62855;50.718;-2.460;2023-03-11T08:12:34;36.32;82.00
74420;DHT22;62855;50.718;-2.460;2023-03-11T08:15:07;36.50;82.00
74420;DHT22;62855;50.718;-2.460;2023-03-11T08:18:06;36.50;83.00
74420;DHT22;62855;50.718;-2.460;2023-03-11T08:21:06;36.68;83.00
74420;DHT22;62855;50.718;-2.460;2023-03-11T08:24:08;36.86;83.00
74420;DHT22;62855;50.718;-2.460;2023-03-11T08:27:06;36.86;83.00
74420;DHT22;62855;50.718;-2.460;2023-03-11T08:30:08;37.04;83.00
74420;DHT22;62855;50.718;-2.460;2023-03-11T08:33:05;37.22;83.00
74420;DHT22;62855;50.718;-2.460;2023-03-11T08:36:06;37.22;83.00
74420;DHT22;62855;50.718;-2.460;2023-03-11T08:39:06;37.22;83.00
74420;DHT22;62855;50.718;-2.460;2023-03-11T08:42:06;37.40;83.00
74420;DHT22;62855;50.718;-2.460;2023-03-11T08:45:07;37.40;84.00
74420;DHT22;62855;50.718;-2.460;2023-03-11T08:48:09;37.58;84.00
74420;DHT22;62855;50.718;-2.460;2023-03-11T08:51:09;37.58;84.00
74420;DHT22;62855;50.718;-2.460;2023-03-11T08:54:06;37.76;84.00
74420;DHT22;62855;50.718;-2.460;2023-03-11T08:57:06;37.76;84.00
74420;DHT22;62855;50.718;-2.460;2023-03-11T09:00:07;37.76;84.00
74420;DHT22;62855;50.718;-2.460;2023-03-11T09:03:06;37.94;84.00
74420;DHT22;62855;50.718;-2.460;2023-03-11T09:06:09;37.94;84.00
74420;DHT22;62855;50.718;-2.460;2023-03-11T09:09:06;38.12;84.00
74420;DHT22;62855;50.718;-2.460;2023-03-11T09:12:07;38.12;84.00
74420;DHT22;62855;50.718;-2.460;2023-03-11T09:15:07;38.30;84.00
74420;DHT22;62855;50.718;-2.460;2023-03-11T09:18:05;38.30;85.00
74420;DHT22;62855;50.718;-2.460;2023-03-11T09:21:06;38.48;85.00
74420;DHT22;62855;50.718;-2.460;2023-03-11T09:24:06;38.48;85.00
74420;DHT22;62855;50.718;-2.460;2023-03-11T09:27:06;38.66;85.00
74420;DHT22;62855;50.718;-2.460;2023-03-11T09:30:08;38.66;85.00
74420;DHT22;62855;50.718;-2.460;2023-03-11T09:33:07;38.84;85.00
74420;DHT22;62855;50.718;-2.460;2023-03-11T09:36:08;39.02;85.00
74420;DHT22;62855;50.718;-2.460;2023-03-11T09:39:06;39.02;85.00
74420;DHT22;62855;50.718;-2.460;2023-03-11T09:42:15;39.20;85.00
74420;DHT22;62855;50.718;-2.460;2023-03-11T09:45:12;39.38;85.00
74420;DHT22;62855;50.718;-2.460;2023-03-11T09:48:13;39.38;86.00
74420;DHT22;62855;50.718;-2.460;2023-03-11T09:51:10;39.56;86.00
74420;DHT22;62855;50.718;-2.460;2023-03-11T09:54:10;39.56;86.00
74420;DHT22;62855;50.718;-2.460;2023-03-11T09:57:12;39.74;86.00
74420;DHT22;62855;50.718;-2.460;2023-03-11T10:00:09;39.92;86.00
74420;DHT22;62855;50.718;-2.460;2023-03-11T10:03:13;39.92;86.00
74420;DHT22;62855;50.718;-2.460;2023-03-11T10:06:13;39.92;85.00
74420;DHT22;62855;50.718;-2.460;2023-03-11T10:09:29;39.92;85.00
74420;DHT22;62855;50.718;-2.460;2023-03-11T10:12:17;39.74;85.00
74420;DHT22;62855;50.718;-2.460;2023-03-11T10:15:15;39.74;85.00
74420;DHT22;62855;50.718;-2.460;2023-03-11T10:18:20;39.92;85.00
74420;DHT22;62855;50.718;-2.460;2023-03-11T10:21:11;39.92;85.00
74420;DHT22;62855;50.718;-2.460;2023-03-11T10:24:16;39.92;84.00
74420;DHT22;62855;50.718;-2.460;2023-03-11T10:27:10;40.10;84.00
74420;DHT22;62855;50.718;-2.460;2023-03-11T10:30:12;40.10;84.00
74420;DHT22;62855;50.718;-2.460;2023-03-11T10:33:13;40.10;84.00
74420;DHT22;62855;50.718;-2.460;2023-03-11T10:36:11;40.28;84.00
74420;DHT22;62855;50.718;-2.460;2023-03-11T10:39:09;40.28;84.00
74420;DHT22;62855;50.718;-2.460;2023-03-11T10:42:12;40.28;84.00
74420;DHT22;62855;50.718;-2.460;2023-03-11T10:45:12;40.28;84.00
74420;DHT22;62855;50.718;-2.460;2023-03-11T10:48:09;40.28;84.00
74420;DHT22;62855;50.718;-2.460;2023-03-11T10:51:13;40.28;84.00
74420;DHT22;62855;50.718;-2.460;2023-03-11T10:54:05;40.28;84.00
74420;DHT22;62855;50.718;-2.460;2023-03-11T10:57:19;40.28;84.00
74420;DHT22;62855;50.718;-2.460;2023-03-11T11:00:08;40.10;84.00
74420;DHT22;62855;50.718;-2.460;2023-03-11T11:03:14;40.10;84.00
74420;DHT22;62855;50.718;-2.460;2023-03-11T11:06:18;40.10;84.00
74420;DHT22;62855;50.718;-2.460;2023-03-11T11:09:13;40.10;84.00
74420;DHT22;62855;50.718;-2.460;2023-03-11T11:12:13;40.10;84.00
74420;DHT22;62855;50.718;-2.460;2023-03-11T11:15:19;40.10;84.00
74420;DHT22;62855;50.718;-2.460;2023-03-11T11:18:15;40.10;84.00
74420;DHT22;62855;50.718;-2.460;2023-03-11T11:21:08;40.10;84.00
74420;DHT22;62855;50.718;-2.460;2023-03-11T11:24:14;40.10;84.00
74420;DHT22;62855;50.718;-2.460;2023-03-11T11:27:15;40.28;84.00
74420;DHT22;62855;50.718;-2.460;2023-03-11T11:30:14;40.28;84.00
74420;DHT22;62855;50.718;-2.460;2023-03-11T11:33:21;40.46;84.00
74420;DHT22;62855;50.718;-2.460;2023-03-11T11:36:13;40.46;84.00
74420;DHT22;62855;50.718;-2.460;2023-03-11T11:39:14;40.46;85.00
74420;DHT22;62855;50.718;-2.460;2023-03-11T11:42:09;40.46;85.00
74420;DHT22;62855;50.718;-2.460;2023-03-11T11:45:13;40.64;85.00
74420;DHT22;62855;50.718;-2.460;2023-03-11T11:48:13;40.64;85.00
74420;DHT22;62855;50.718;-2.460;2023-03-11T11:51:12;40.64;85.00
74420;DHT22;62855;50.718;-2.460;2023-03-11T11:54:14;40.64;85.00
74420;DHT22;62855;50.718;-2.460;2023-03-11T11:57:11;40.64;85.00
74420;DHT22;62855;50.718;-2.460;2023-03-11T12:00:16;40.82;85.00
74420;DHT22;62855;50.718;-2.460;2023-03-11T12:03:16;40.82;85.00
74420;DHT22;62855;50.718;-2.460;2023-03-11T12:06:13;40.82;85.00
74420;DHT22;62855;50.718;-2.460;2023-03-11T12:09:13;40.82;85.00
74420;DHT22;62855;50.718;-2.460;2023-03-11T12:12:16;40.82;85.00
74420;DHT22;62855;50.718;-2.460;2023-03-11T12:15:09;40.64;85.00
74420;DHT22;62855;50.718;-2.460;2023-03-11T12:18:11;40.64;85.00
74420;DHT22;62855;50.718;-2.460;2023-03-11T12:21:14;40.64;85.00
74420;DHT22;62855;50.718;-2.460;2023-03-11T12:24:17;40.64;85.00
74420;DHT22;62855;50.718;-2.460;2023-03-11T12:27:12;40.64;85.00
74420;DHT22;62855;50.718;-2.460;2023-03-11T12:30:12;40.82;85.00
74420;DHT22;62855;50.718;-2.460;2023-03-11T12:33:13;40.82;85.00
74420;DHT22;62855;50.718;-2.460;2023-03-11T12:36:16;40.82;85.00
74420;DHT22;62855;50.718;-2.460;2023-03-11T12:39:20;40.82;85.00
74420;DHT22;62855;50.718;-2.460;2023-03-11T12:42:15;40.82;85.00
74420;DHT22;62855;50.718;-2.460;2023-03-11T12:48:23;40.82;85.00
74420;DHT22;62855;50.718;-2.460;2023-03-11T12:54:20;41.00;85.00
74420;DHT22;62855;50.718;-2.460;2023-03-11T12:57:13;41.00;85.00
74420;DHT22;62855;50.718;-2.460;2023-03-11T13:00:14;41.18;85.00
74420;DHT22;62855;50.718;-2.460;2023-03-11T13:03:21;41.18;86.00
74420;DHT22;62855;50.718;-2.460;2023-03-11T13:06:19;41.36;86.00
74420;DHT22;62855;50.718;-2.460;2023-03-11T13:09:13;41.36;86.00
74420;DHT22;62855;50.718;-2.460;2023-03-11T13:12:38;41.36;86.00
74420;DHT22;62855;50.718;-2.460;2023-03-11T13:15:28;41.36;86.00
74420;DHT22;62855;50.718;-2.460;2023-03-11T13:18:16;41.36;86.00
74420;DHT22;62855;50.718;-2.460;2023-03-11T13:24:40;41.36;86.00
74420;DHT22;62855;50.718;-2.460;2023-03-11T13:27:10;41.36;86.00
74420;DHT22;62855;50.718;-2.460;2023-03-11T13:30:10;41.36;86.00
74420;DHT22;62855;50.718;-2.460;2023-03-11T13:33:20;41.36;86.00
74420;DHT22;62855;50.718;-2.460;2023-03-11T13:36:14;41.36;86.00
74420;DHT22;62855;50.718;-2.460;2023-03-11T13:39:17;41.36;86.00
74420;DHT22;62855;50.718;-2.460;2023-03-11T13:42:15;41.36;86.00
74420;DHT22;62855;50.718;-2.460;2023-03-11T13:45:15;41.54;86.00
74420;DHT22;62855;50.718;-2.460;2023-03-11T13:48:12;41.54;86.00
74420;DHT22;62855;50.718;-2.460;2023-03-11T13:51:13;41.54;86.00
74420;DHT22;62855;50.718;-2.460;2023-03-11T13:54:21;41.54;86.00
74420;DHT22;62855;50.718;-2.460;2023-03-11T13:57:19;41.54;86.00
74420;DHT22;62855;50.718;-2.460;2023-03-11T14:00:15;41.54;86.00
74420;DHT22;62855;50.718;-2.460;2023-03-11T14:03:10;41.72;86.00
74420;DHT22;62855;50.718;-2.460;2023-03-11T14:06:08;41.72;86.00
74420;DHT22;62855;50.718;-2.460;2023-03-11T14:09:17;41.72;86.00
74420;DHT22;62855;50.718;-2.460;2023-03-11T14:12:06;41.72;86.00
74420;DHT22;62855;50.718;-2.460;2023-03-11T14:15:08;41.72;86.00
74420;DHT22;62855;50.718;-2.460;2023-03-11T14:18:27;41.72;86.00
74420;DHT22;62855;50.718;-2.460;2023-03-11T14:21:11;41.72;86.00
74420;DHT22;62855;50.718;-2.460;2023-03-11T14:24:14;41.72;85.00
74420;DHT22;62855;50.718;-2.460;2023-03-11T14:27:08;41.72;85.00
74420;DHT22;62855;50.718;-2.460;2023-03-11T14:30:15;41.90;85.00
74420;DHT22;62855;50.718;-2.460;2023-03-11T14:33:19;41.90;85.00
74420;DHT22;62855;50.718;-2.460;2023-03-11T14:36:11;41.90;85.00
74420;DHT22;62855;50.718;-2.460;2023-03-11T14:39:21;42.08;85.00
74420;DHT22;62855;50.718;-2.460;2023-03-11T14:42:13;42.08;85.00
74420;DHT22;62855;50.718;-2.460;2023-03-11T14:45:10;42.26;85.00
74420;DHT22;62855;50.718;-2.460;2023-03-11T14:48:09;42.26;85.00
74420;DHT22;62855;50.718;-2.460;2023-03-11T14:51:11;42.26;85.00
74420;DHT22;62855;50.718;-2.460;2023-03-11T14:54:13;42.26;85.00
74420;DHT22;62855;50.718;-2.460;2023-03-11T14:57:18;42.26;85.00
74420;DHT22;62855;50.718;-2.460;2023-03-11T15:00:14;42.08;85.00
74420;DHT22;62855;50.718;-2.460;2023-03-11T15:03:21;42.08;85.00
74420;DHT22;62855;50.718;-2.460;2023-03-11T15:06:08;42.08;85.00
74420;DHT22;62855;50.718;-2.460;2023-03-11T15:09:07;42.08;85.00
74420;DHT22;62855;50.718;-2.460;2023-03-11T15:12:06;42.26;85.00
74420;DHT22;62855;50.718;-2.460;2023-03-11T15:15:21;42.26;85.00
74420;DHT22;62855;50.718;-2.460;2023-03-11T15:18:21;42.26;85.00
74420;DHT22;62855;50.718;-2.460;2023-03-11T15:21:12;42.26;85.00
74420;DHT22;62855;50.718;-2.460;2023-03-11T15:24:17;42.26;85.00
74420;DHT22;62855;50.718;-2.460;2023-03-11T15:27:17;42.26;85.00
74420;DHT22;62855;50.718;-2.460;2023-03-11T15:30:19;42.26;85.00
74420;DHT22;62855;50.718;-2.460;2023-03-11T15:33:20;42.26;85.00
74420;DHT22;62855;50.718;-2.460;2023-03-11T15:36:27;42.26;85.00
74420;DHT22;62855;50.718;-2.460;2023-03-11T15:39:12;42.26;85.00
74420;DHT22;62855;50.718;-2.460;2023-03-11T15:42:13;42.08;85.00
74420;DHT22;62855;50.718;-2.460;2023-03-11T15:45:15;42.08;85.00
74420;DHT22;62855;50.718;-2.460;2023-03-11T15:48:08;42.08;85.00
74420;DHT22;62855;50.718;-2.460;2023-03-11T15:51:15;42.08;85.00
74420;DHT22;62855;50.718;-2.460;2023-03-11T15:54:05;42.08;85.00
74420;DHT22;62855;50.718;-2.460;2023-03-11T15:57:08;42.26;85.00
74420;DHT22;62855;50.718;-2.460;2023-03-11T16:00:14;42.26;86.00
74420;DHT22;62855;50.718;-2.460;2023-03-11T16:03:06;42.26;86.00
74420;DHT22;62855;50.718;-2.460;2023-03-11T16:06:06;42.26;86.00
74420;DHT22;62855;50.718;-2.460;2023-03-11T16:09:07;42.26;86.00
74420;DHT22;62855;50.718;-2.460;2023-03-11T16:12:13;42.26;86.00
74420;DHT22;62855;50.718;-2.460;2023-03-11T16:15:18;42.08;86.00
74420;DHT22;62855;50.718;-2.460;2023-03-11T16:18:07;42.08;86.00
74420;DHT22;62855;50.718;-2.460;2023-03-11T16:21:09;42.08;86.00
74420;DHT22;62855;50.718;-2.460;2023-03-11T16:24:07;42.08;86.00
74420;DHT22;62855;50.718;-2.460;2023-03-11T16:27:07;42.08;86.00
74420;DHT22;62855;50.718;-2.460;2023-03-11T16:30:08;42.08;86.00
74420;DHT22;62855;50.718;-2.460;2023-03-11T16:33:06;42.08;86.00
74420;DHT22;62855;50.718;-2.460;2023-03-11T16:36:06;42.08;86.00
74420;DHT22;62855;50.718;-2.460;2023-03-11T16:39:07;42.26;86.00
74420;DHT22;62855;50.718;-2.460;2023-03-11T16:42:06;42.26;86.00
74420;DHT22;62855;50.718;-2.460;2023-03-11T16:45:06;42.26;86.00
74420;DHT22;62855;50.718;-2.460;2023-03-11T16:48:06;42.26;86.00
74420;DHT22;62855;50.718;-2.460;2023-03-11T16:51:06;42.26;86.00
74420;DHT22;62855;50.718;-2.460;2023-03-11T16:54:06;42.26;86.00
74420;DHT22;62855;50.718;-2.460;2023-03-11T16:57:06;42.26;86.00
74420;DHT22;62855;50.718;-2.460;2023-03-11T17:00:08;42.26;87.00
74420;DHT22;62855;50.718;-2.460;2023-03-11T17:03:06;42.08;87.00
74420;DHT22;62855;50.718;-2.460;2023-03-11T17:06:06;42.08;87.00
74420;DHT22;62855;50.718;-2.460;2023-03-11T17:09:06;42.26;87.00
74420;DHT22;62855;50.718;-2.460;2023-03-11T17:12:06;42.26;87.00
74420;DHT22;62855;50.718;-2.460;2023-03-11T17:15:07;42.26;87.00
74420;DHT22;62855;50.718;-2.460;2023-03-11T17:18:06;42.26;87.00
74420;DHT22;62855;50.718;-2.460;2023-03-11T17:21:07;42.08;87.00
74420;DHT22;62855;50.718;-2.460;2023-03-11T17:24:07;42.08;87.00
74420;DHT22;62855;50.718;-2.460;2023-03-11T17:27:06;42.26;87.00
74420;DHT22;62855;50.718;-2.460;2023-03-11T17:30:07;42.08;87.00
74420;DHT22;62855;50.718;-2.460;2023-03-11T17:33:05;42.26;87.00
74420;DHT22;62855;50.718;-2.460;2023-03-11T17:36:09;42.26;87.00
74420;DHT22;62855;50.718;-2.460;2023-03-11T17:39:06;42.26;87.00
74420;DHT22;62855;50.718;-2.460;2023-03-11T17:42:05;42.26;87.00
74420;DHT22;62855;50.718;-2.460;2023-03-11T17:45:07;42.26;87.00
74420;DHT22;62855;50.718;-2.460;2023-03-11T17:48:06;42.26;87.00
74420;DHT22;62855;50.718;-2.460;2023-03-11T17:51:07;42.26;87.00
74420;DHT22;62855;50.718;-2.460;2023-03-11T17:54:06;42.26;87.00
74420;DHT22;62855;50.718;-2.460;2023-03-11T17:57:06;42.26;88.00
74420;DHT22;62855;50.718;-2.460;2023-03-11T18:00:07;42.26;88.00
74420;DHT22;62855;50.718;-2.460;2023-03-11T18:03:06;42.26;88.00
74420;DHT22;62855;50.718;-2.460;2023-03-11T18:06:06;42.26;88.00
74420;DHT22;62855;50.718;-2.460;2023-03-11T18:09:06;42.26;88.00
74420;DHT22;62855;50.718;-2.460;2023-03-11T18:12:06;42.26;88.00
74420;DHT22;62855;50.718;-2.460;2023-03-11T18:15:07;42.44;88.00
74420;DHT22;62855;50.718;-2.460;2023-03-11T18:18:06;42.44;88.00
74420;DHT22;62855;50.718;-2.460;2023-03-11T18:21:07;42.44;88.00
74420;DHT22;62855;50.718;-2.460;2023-03-11T18:24:06;42.44;88.00
74420;DHT22;62855;50.718;-2.460;2023-03-11T18:27:06;42.44;88.00
74420;DHT22;62855;50.718;-2.460;2023-03-11T18:30:08;42.44;88.00
74420;DHT22;62855;50.718;-2.460;2023-03-11T18:33:05;42.44;88.00
74420;DHT22;62855;50.718;-2.460;2023-03-11T18:36:14;42.44;88.00
74420;DHT22;62855;50.718;-2.460;2023-03-11T18:39:07;42.62;88.00
74420;DHT22;62855;50.718;-2.460;2023-03-11T18:42:06;42.62;88.00
74420;DHT22;62855;50.718;-2.460;2023-03-11T18:45:06;42.62;88.00
74420;DHT22;62855;50.718;-2.460;2023-03-11T18:48:05;42.62;88.00